sensor_id;sensor_type;location;lat;lon;timestamp;temperature;humidity
42099;DHT22;27758;55.900;8.516;2022-08-07T00:01:44;12.40;99.90
42099;DHT22;27758;55.900;8.516;2022-08-07T00:04:10;12.50;99.90
42099;DHT22;27758;55.900;8.516;2022-08-07T00:06:36;12.40;99.90
42099;DHT22;27758;55.900;8.516;2022-08-07T00:09:03;12.40;99.90
42099;DHT22;27758;55.900;8.516;2022-08-07T00:11:29;12.50;99.90
42099;DHT22;27758;55.900;8.516;2022-08-07T00:13:55;12.50;99.90
42099;DHT22;27758;55.900;8.516;2022-08-07T00:16:20;12.50;99.90
42099;DHT22;27758;55.900;8.516;2022-08-07T00:18:46;12.50;99.90
42099;DHT22;27758;55.900;8.516;2022-08-07T00:21:12;12.60;99.90
42099;DHT22;27758;55.900;8.516;2022-08-07T00:23:38;12.60;99.90
42099;DHT22;27758;55.900;8.516;2022-08-07T00:26:05;12.60;99.90
42099;DHT22;27758;55.900;8.516;2022-08-07T00:28:32;12.60;99.90
42099;DHT22;27758;55.900;8.516;2022-08-07T00:30:58;12.70;99.90
42099;DHT22;27758;55.900;8.516;2022-08-07T00:33:23;12.70;99.90
42099;DHT22;27758;55.900;8.516;2022-08-07T00:35:55;12.80;99.90
42099;DHT22;27758;55.900;8.516;2022-08-07T00:38:21;12.90;99.90
42099;DHT22;27758;55.900;8.516;2022-08-07T00:40:47;13.00;99.90
42099;DHT22;27758;55.900;8.516;2022-08-07T00:43:13;13.00;99.90
42099;DHT22;27758;55.900;8.516;2022-08-07T00:45:40;13.00;99.90
42099;DHT22;27758;55.900;8.516;2022-08-07T00:48:06;13.00;99.90
42099;DHT22;27758;55.900;8.516;2022-08-07T00:50:32;13.00;99.90
42099;DHT22;27758;55.900;8.516;2022-08-07T00:52:58;13.00;99.90
42099;DHT22;27758;55.900;8.516;2022-08-07T00:55:24;13.00;99.90
42099;DHT22;27758;55.900;8.516;2022-08-07T00:57:50;13.00;99.90
42099;DHT22;27758;55.900;8.516;2022-08-07T01:00:16;13.00;99.90
42099;DHT22;27758;55.900;8.516;2022-08-07T01:02:43;12.90;99.90
42099;DHT22;27758;55.900;8.516;2022-08-07T01:05:09;13.00;99.90
42099;DHT22;27758;55.900;8.516;2022-08-07T01:07:35;13.00;99.90
42099;DHT22;27758;55.900;8.516;2022-08-07T01:10:01;12.90;99.90
42099;DHT22;27758;55.900;8.516;2022-08-07T01:12:26;12.80;99.90
42099;DHT22;27758;55.900;8.516;2022-08-07T01:14:53;12.80;99.90
42099;DHT22;27758;55.900;8.516;2022-08-07T01:17:19;12.80;99.90
42099;DHT22;27758;55.900;8.516;2022-08-07T01:19:44;12.90;99.90
42099;DHT22;27758;55.900;8.516;2022-08-07T01:22:10;12.90;99.90
42099;DHT22;27758;55.900;8.516;2022-08-07T01:24:36;12.90;99.90
42099;DHT22;27758;55.900;8.516;2022-08-07T01:27:02;12.90;99.90
42099;DHT22;27758;55.900;8.516;2022-08-07T01:29:28;12.90;99.90
42099;DHT22;27758;55.900;8.516;2022-08-07T01:31:54;12.90;99.90
42099;DHT22;27758;55.900;8.516;2022-08-07T01:34:20;12.90;99.90
42099;DHT22;27758;55.900;8.516;2022-08-07T01:36:47;12.90;99.90
42099;DHT22;27758;55.900;8.516;2022-08-07T01:39:13;12.90;99.90
42099;DHT22;27758;55.900;8.516;2022-08-07T01:41:39;12.90;99.90
42099;DHT22;27758;55.900;8.516;2022-08-07T01:44:05;12.90;99.90
42099;DHT22;27758;55.900;8.516;2022-08-07T01:46:31;13.00;99.90
42099;DHT22;27758;55.900;8.516;2022-08-07T01:48:57;13.00;99.90
42099;DHT22;27758;55.900;8.516;2022-08-07T01:51:23;13.00;99.90
42099;DHT22;27758;55.900;8.516;2022-08-07T01:53:50;13.00;99.90
42099;DHT22;27758;55.900;8.516;2022-08-07T01:56:25;13.10;99.90
42099;DHT22;27758;55.900;8.516;2022-08-07T01:59:00;13.10;99.90
42099;DHT22;27758;55.900;8.516;2022-08-07T02:01:35;13.10;99.90
42099;DHT22;27758;55.900;8.516;2022-08-07T02:04:06;13.10;99.90
42099;DHT22;27758;55.900;8.516;2022-08-07T02:06:33;13.10;99.90
42099;DHT22;27758;55.900;8.516;2022-08-07T02:09:01;13.00;99.90
42099;DHT22;27758;55.900;8.516;2022-08-07T02:11:27;13.00;99.90
42099;DHT22;27758;55.900;8.516;2022-08-07T02:13:53;13.00;99.90
42099;DHT22;27758;55.900;8.516;2022-08-07T02:16:21;13.00;99.90
42099;DHT22;27758;55.900;8.516;2022-08-07T02:18:48;13.00;99.90
42099;DHT22;27758;55.900;8.516;2022-08-07T02:21:14;13.00;99.90
42099;DHT22;27758;55.900;8.516;2022-08-07T02:23:41;13.00;99.90
42099;DHT22;27758;55.900;8.516;2022-08-07T02:26:07;12.90;99.90
42099;DHT22;27758;55.900;8.516;2022-08-07T02:28:35;12.90;99.90
42099;DHT22;27758;55.900;8.516;2022-08-07T02:31:02;13.00;99.90
42099;DHT22;27758;55.900;8.516;2022-08-07T02:33:29;13.00;99.90
42099;DHT22;27758;55.900;8.516;2022-08-07T02:35:55;13.10;99.90
42099;DHT22;27758;55.900;8.516;2022-08-07T02:38:24;13.00;99.90
42099;DHT22;27758;55.900;8.516;2022-08-07T02:40:51;13.00;99.90
42099;DHT22;27758;55.900;8.516;2022-08-07T02:43:17;13.10;99.90
42099;DHT22;27758;55.900;8.516;2022-08-07T02:45:43;13.10;99.90
42099;DHT22;27758;55.900;8.516;2022-08-07T02:48:10;13.10;99.90
42099;DHT22;27758;55.900;8.516;2022-08-07T02:50:38;13.10;99.90
42099;DHT22;27758;55.900;8.516;2022-08-07T02:53:06;13.10;99.90
42099;DHT22;27758;55.900;8.516;2022-08-07T02:55:32;13.10;99.90
42099;DHT22;27758;55.900;8.516;2022-08-07T02:58:01;13.10;99.90
42099;DHT22;27758;55.900;8.516;2022-08-07T03:00:28;13.00;99.90
42099;DHT22;27758;55.900;8.516;2022-08-07T03:02:54;13.10;99.90
42099;DHT22;27758;55.900;8.516;2022-08-07T03:05:20;13.10;99.90
42099;DHT22;27758;55.900;8.516;2022-08-07T03:07:47;13.00;99.90
42099;DHT22;27758;55.900;8.516;2022-08-07T03:10:13;12.90;99.90
42099;DHT22;27758;55.900;8.516;2022-08-07T03:12:39;12.90;99.90
42099;DHT22;27758;55.900;8.516;2022-08-07T03:15:05;12.90;99.90
42099;DHT22;27758;55.900;8.516;2022-08-07T03:17:31;12.90;99.90
42099;DHT22;27758;55.900;8.516;2022-08-07T03:19:57;12.90;99.90
42099;DHT22;27758;55.900;8.516;2022-08-07T03:22:23;12.90;99.90
42099;DHT22;27758;55.900;8.516;2022-08-07T03:24:49;12.80;99.90
42099;DHT22;27758;55.900;8.516;2022-08-07T03:27:15;12.90;99.90
42099;DHT22;27758;55.900;8.516;2022-08-07T03:29:49;12.90;99.90
42099;DHT22;27758;55.900;8.516;2022-08-07T03:32:15;12.90;99.90
42099;DHT22;27758;55.900;8.516;2022-08-07T03:34:42;12.90;99.90
42099;DHT22;27758;55.900;8.516;2022-08-07T03:37:09;13.00;99.90
42099;DHT22;27758;55.900;8.516;2022-08-07T03:39:35;13.00;99.90
42099;DHT22;27758;55.900;8.516;2022-08-07T03:42:04;13.10;99.90
42099;DHT22;27758;55.900;8.516;2022-08-07T03:44:30;13.20;99.90
42099;DHT22;27758;55.900;8.516;2022-08-07T03:46:57;13.20;99.90
42099;DHT22;27758;55.900;8.516;2022-08-07T03:49:23;13.20;99.90
42099;DHT22;27758;55.900;8.516;2022-08-07T03:51:49;13.20;99.90
42099;DHT22;27758;55.900;8.516;2022-08-07T03:54:16;13.10;99.90
42099;DHT22;27758;55.900;8.516;2022-08-07T03:56:42;13.20;99.90
42099;DHT22;27758;55.900;8.516;2022-08-07T03:59:08;13.30;99.90
42099;DHT22;27758;55.900;8.516;2022-08-07T04:01:38;13.20;99.90
42099;DHT22;27758;55.900;8.516;2022-08-07T04:04:04;13.20;99.90
42099;DHT22;27758;55.900;8.516;2022-08-07T04:06:30;13.20;99.90
42099;DHT22;27758;55.900;8.516;2022-08-07T04:08:58;13.20;99.90
42099;DHT22;27758;55.900;8.516;2022-08-07T04:11:24;13.20;99.90
42099;DHT22;27758;55.900;8.516;2022-08-07T04:13:50;13.30;99.90
42099;DHT22;27758;55.900;8.516;2022-08-07T04:16:16;13.30;99.90
42099;DHT22;27758;55.900;8.516;2022-08-07T04:18:41;13.30;99.90
42099;DHT22;27758;55.900;8.516;2022-08-07T04:21:07;13.30;99.90
42099;DHT22;27758;55.900;8.516;2022-08-07T04:23:33;13.30;99.90
42099;DHT22;27758;55.900;8.516;2022-08-07T04:25:59;13.40;99.90
42099;DHT22;27758;55.900;8.516;2022-08-07T04:28:26;13.50;99.90
42099;DHT22;27758;55.900;8.516;2022-08-07T04:30:51;13.50;99.90
42099;DHT22;27758;55.900;8.516;2022-08-07T04:33:17;13.50;99.90
42099;DHT22;27758;55.900;8.516;2022-08-07T04:35:44;13.50;99.90
42099;DHT22;27758;55.900;8.516;2022-08-07T04:38:10;13.60;99.90
42099;DHT22;27758;55.900;8.516;2022-08-07T04:40:40;13.70;99.90
42099;DHT22;27758;55.900;8.516;2022-08-07T04:43:06;13.80;99.90
42099;DHT22;27758;55.900;8.516;2022-08-07T04:45:37;13.80;99.90
42099;DHT22;27758;55.900;8.516;2022-08-07T04:48:13;13.80;99.90
42099;DHT22;27758;55.900;8.516;2022-08-07T04:50:44;13.80;99.90
42099;DHT22;27758;55.900;8.516;2022-08-07T04:55:49;13.90;99.90
42099;DHT22;27758;55.900;8.516;2022-08-07T04:58:23;13.90;99.90
42099;DHT22;27758;55.900;8.516;2022-08-07T05:00:58;13.80;99.90
42099;DHT22;27758;55.900;8.516;2022-08-07T05:03:35;13.90;99.90
42099;DHT22;27758;55.900;8.516;2022-08-07T05:06:09;13.90;99.90
42099;DHT22;27758;55.900;8.516;2022-08-07T05:08:39;13.80;99.90
42099;DHT22;27758;55.900;8.516;2022-08-07T05:13:35;14.00;99.90
42099;DHT22;27758;55.900;8.516;2022-08-07T05:16:03;14.10;99.90
42099;DHT22;27758;55.900;8.516;2022-08-07T05:18:31;14.10;99.90
42099;DHT22;27758;55.900;8.516;2022-08-07T05:20:59;14.20;99.90
42099;DHT22;27758;55.900;8.516;2022-08-07T05:23:33;14.30;99.90
42099;DHT22;27758;55.900;8.516;2022-08-07T05:26:01;14.40;99.90
42099;DHT22;27758;55.900;8.516;2022-08-07T05:28:27;14.40;99.90
42099;DHT22;27758;55.900;8.516;2022-08-07T05:30:54;14.40;99.90
42099;DHT22;27758;55.900;8.516;2022-08-07T05:33:21;14.50;99.90
42099;DHT22;27758;55.900;8.516;2022-08-07T05:35:50;14.60;99.90
42099;DHT22;27758;55.900;8.516;2022-08-07T05:38:16;14.60;99.90
42099;DHT22;27758;55.900;8.516;2022-08-07T05:40:42;14.60;99.90
42099;DHT22;27758;55.900;8.516;2022-08-07T05:43:08;14.60;99.90
42099;DHT22;27758;55.900;8.516;2022-08-07T05:45:34;14.70;99.90
42099;DHT22;27758;55.900;8.516;2022-08-07T05:48:02;14.60;99.90
42099;DHT22;27758;55.900;8.516;2022-08-07T05:50:28;14.70;99.90
42099;DHT22;27758;55.900;8.516;2022-08-07T05:52:54;14.70;99.90
42099;DHT22;27758;55.900;8.516;2022-08-07T05:55:20;14.70;99.90
42099;DHT22;27758;55.900;8.516;2022-08-07T05:57:46;14.70;99.90
42099;DHT22;27758;55.900;8.516;2022-08-07T06:00:12;14.70;99.90
42099;DHT22;27758;55.900;8.516;2022-08-07T06:02:38;14.80;99.90
42099;DHT22;27758;55.900;8.516;2022-08-07T06:05:06;14.90;99.90
42099;DHT22;27758;55.900;8.516;2022-08-07T06:07:32;14.90;99.90
42099;DHT22;27758;55.900;8.516;2022-08-07T06:09:59;15.00;99.90
42099;DHT22;27758;55.900;8.516;2022-08-07T06:12:25;15.00;99.90
42099;DHT22;27758;55.900;8.516;2022-08-07T06:14:51;15.00;99.90
42099;DHT22;27758;55.900;8.516;2022-08-07T06:17:18;15.00;99.90
42099;DHT22;27758;55.900;8.516;2022-08-07T06:19:43;15.00;99.90
42099;DHT22;27758;55.900;8.516;2022-08-07T06:22:09;15.00;99.90
42099;DHT22;27758;55.900;8.516;2022-08-07T06:24:35;15.00;99.90
42099;DHT22;27758;55.900;8.516;2022-08-07T06:27:02;15.00;99.90
42099;DHT22;27758;55.900;8.516;2022-08-07T06:29:28;15.00;99.90
42099;DHT22;27758;55.900;8.516;2022-08-07T06:31:54;15.00;99.90
42099;DHT22;27758;55.900;8.516;2022-08-07T06:34:23;15.00;99.90
42099;DHT22;27758;55.900;8.516;2022-08-07T06:36:50;15.00;99.90
42099;DHT22;27758;55.900;8.516;2022-08-07T06:39:15;15.10;99.90
42099;DHT22;27758;55.900;8.516;2022-08-07T06:41:42;15.10;99.90
42099;DHT22;27758;55.900;8.516;2022-08-07T06:44:09;15.10;99.90
42099;DHT22;27758;55.900;8.516;2022-08-07T06:46:36;15.20;99.90
42099;DHT22;27758;55.900;8.516;2022-08-07T06:49:02;15.20;99.90
42099;DHT22;27758;55.900;8.516;2022-08-07T06:51:28;15.20;99.90
42099;DHT22;27758;55.900;8.516;2022-08-07T06:54:03;15.30;99.90
42099;DHT22;27758;55.900;8.516;2022-08-07T06:56:30;15.30;99.90
42099;DHT22;27758;55.900;8.516;2022-08-07T06:59:19;15.30;99.90
42099;DHT22;27758;55.900;8.516;2022-08-07T07:01:46;15.40;99.90
42099;DHT22;27758;55.900;8.516;2022-08-07T07:04:15;15.40;99.90
42099;DHT22;27758;55.900;8.516;2022-08-07T07:06:41;15.50;99.90
42099;DHT22;27758;55.900;8.516;2022-08-07T07:09:15;15.50;99.90
42099;DHT22;27758;55.900;8.516;2022-08-07T07:11:43;15.60;99.90
42099;DHT22;27758;55.900;8.516;2022-08-07T07:14:11;15.60;99.90
42099;DHT22;27758;55.900;8.516;2022-08-07T07:16:39;15.70;99.90
42099;DHT22;27758;55.900;8.516;2022-08-07T07:19:06;15.70;99.90
42099;DHT22;27758;55.900;8.516;2022-08-07T07:21:34;15.80;99.90
42099;DHT22;27758;55.900;8.516;2022-08-07T07:24:03;15.80;99.90
42099;DHT22;27758;55.900;8.516;2022-08-07T07:26:29;15.80;99.90
42099;DHT22;27758;55.900;8.516;2022-08-07T07:29:02;16.00;99.90
42099;DHT22;27758;55.900;8.516;2022-08-07T07:31:31;15.90;99.90
42099;DHT22;27758;55.900;8.516;2022-08-07T07:33:59;16.10;99.90
42099;DHT22;27758;55.900;8.516;2022-08-07T07:36:28;16.30;99.90
42099;DHT22;27758;55.900;8.516;2022-08-07T07:38:54;16.40;99.90
42099;DHT22;27758;55.900;8.516;2022-08-07T07:41:21;16.50;99.90
42099;DHT22;27758;55.900;8.516;2022-08-07T07:43:47;16.60;99.90
42099;DHT22;27758;55.900;8.516;2022-08-07T07:46:15;16.60;99.90
42099;DHT22;27758;55.900;8.516;2022-08-07T07:48:41;16.70;99.90
42099;DHT22;27758;55.900;8.516;2022-08-07T07:51:10;16.70;99.90
42099;DHT22;27758;55.900;8.516;2022-08-07T07:53:40;16.70;99.90
42099;DHT22;27758;55.900;8.516;2022-08-07T07:56:07;16.70;99.90
42099;DHT22;27758;55.900;8.516;2022-08-07T07:58:34;16.60;99.90
42099;DHT22;27758;55.900;8.516;2022-08-07T08:01:00;16.40;99.90
42099;DHT22;27758;55.900;8.516;2022-08-07T08:03:27;16.20;99.90
42099;DHT22;27758;55.900;8.516;2022-08-07T08:05:54;16.00;99.90
42099;DHT22;27758;55.900;8.516;2022-08-07T08:08:21;15.90;99.90
42099;DHT22;27758;55.900;8.516;2022-08-07T08:10:47;15.80;99.90
42099;DHT22;27758;55.900;8.516;2022-08-07T08:13:13;15.80;99.90
42099;DHT22;27758;55.900;8.516;2022-08-07T08:15:39;15.80;99.90
42099;DHT22;27758;55.900;8.516;2022-08-07T08:18:07;15.80;99.90
42099;DHT22;27758;55.900;8.516;2022-08-07T08:20:33;15.70;99.90
42099;DHT22;27758;55.900;8.516;2022-08-07T08:23:02;15.80;99.90
42099;DHT22;27758;55.900;8.516;2022-08-07T08:25:48;15.80;99.90
42099;DHT22;27758;55.900;8.516;2022-08-07T08:28:35;15.80;99.90
42099;DHT22;27758;55.900;8.516;2022-08-07T08:31:02;15.80;99.90
42099;DHT22;27758;55.900;8.516;2022-08-07T08:33:30;15.90;99.90
42099;DHT22;27758;55.900;8.516;2022-08-07T08:35:56;16.00;99.90
42099;DHT22;27758;55.900;8.516;2022-08-07T08:38:24;16.00;99.90
42099;DHT22;27758;55.900;8.516;2022-08-07T08:40:55;16.10;99.90
42099;DHT22;27758;55.900;8.516;2022-08-07T08:46:00;16.20;99.90
42099;DHT22;27758;55.900;8.516;2022-08-07T08:48:42;16.30;99.90
42099;DHT22;27758;55.900;8.516;2022-08-07T08:53:41;16.40;99.90
42099;DHT22;27758;55.900;8.516;2022-08-07T08:56:19;16.50;99.90
42099;DHT22;27758;55.900;8.516;2022-08-07T09:04:35;16.40;99.90
42099;DHT22;27758;55.900;8.516;2022-08-07T09:07:10;16.40;99.90
42099;DHT22;27758;55.900;8.516;2022-08-07T09:19:56;15.70;99.90
42099;DHT22;27758;55.900;8.516;2022-08-07T09:22:28;15.70;99.90
42099;DHT22;27758;55.900;8.516;2022-08-07T09:25:06;15.70;99.90
42099;DHT22;27758;55.900;8.516;2022-08-07T09:27:38;15.80;99.90
42099;DHT22;27758;55.900;8.516;2022-08-07T09:30:07;15.80;99.90
42099;DHT22;27758;55.900;8.516;2022-08-07T09:45:19;16.40;99.90
42099;DHT22;27758;55.900;8.516;2022-08-07T09:48:21;16.30;99.90
42099;DHT22;27758;55.900;8.516;2022-08-07T09:50:45;16.30;99.90
42099;DHT22;27758;55.900;8.516;2022-08-07T09:53:15;16.10;99.90
42099;DHT22;27758;55.900;8.516;2022-08-07T09:56:03;16.00;99.90
42099;DHT22;27758;55.900;8.516;2022-08-07T09:58:47;15.90;99.90
42099;DHT22;27758;55.900;8.516;2022-08-07T10:06:34;15.80;99.90
42099;DHT22;27758;55.900;8.516;2022-08-07T10:11:52;15.90;99.90
42099;DHT22;27758;55.900;8.516;2022-08-07T10:16:57;16.10;99.90
42099;DHT22;27758;55.900;8.516;2022-08-07T10:24:38;16.40;99.90
42099;DHT22;27758;55.900;8.516;2022-08-07T10:35:11;16.70;99.90
42099;DHT22;27758;55.900;8.516;2022-08-07T10:40:13;16.90;99.90
42099;DHT22;27758;55.900;8.516;2022-08-07T10:42:55;17.10;99.90
42099;DHT22;27758;55.900;8.516;2022-08-07T10:45:38;17.10;99.90
42099;DHT22;27758;55.900;8.516;2022-08-07T10:50:41;17.00;99.90
42099;DHT22;27758;55.900;8.516;2022-08-07T10:58:30;16.90;99.90
42099;DHT22;27758;55.900;8.516;2022-08-07T11:11:30;16.90;99.90
42099;DHT22;27758;55.900;8.516;2022-08-07T11:14:09;17.10;99.90
42099;DHT22;27758;55.900;8.516;2022-08-07T11:16:53;17.20;99.90
42099;DHT22;27758;55.900;8.516;2022-08-07T11:22:14;17.40;99.90
42099;DHT22;27758;55.900;8.516;2022-08-07T11:27:11;17.50;99.90
42099;DHT22;27758;55.900;8.516;2022-08-07T11:29:42;17.50;99.90
42099;DHT22;27758;55.900;8.516;2022-08-07T11:32:11;17.80;99.90
42099;DHT22;27758;55.900;8.516;2022-08-07T11:40:02;18.60;99.90
42099;DHT22;27758;55.900;8.516;2022-08-07T11:42:52;18.50;99.90
42099;DHT22;27758;55.900;8.516;2022-08-07T11:45:27;18.60;99.90
42099;DHT22;27758;55.900;8.516;2022-08-07T11:50:24;18.70;99.90
42099;DHT22;27758;55.900;8.516;2022-08-07T11:53:02;18.80;99.90
42099;DHT22;27758;55.900;8.516;2022-08-07T11:56:05;18.80;99.90
42099;DHT22;27758;55.900;8.516;2022-08-07T11:58:40;18.80;99.90
42099;DHT22;27758;55.900;8.516;2022-08-07T12:01:13;18.70;99.90
42099;DHT22;27758;55.900;8.516;2022-08-07T12:10:03;18.50;99.90
42099;DHT22;27758;55.900;8.516;2022-08-07T12:12:04;18.50;99.90
42099;DHT22;27758;55.900;8.516;2022-08-07T12:14:33;18.70;99.90
42099;DHT22;27758;55.900;8.516;2022-08-07T12:17:04;18.70;99.90
42099;DHT22;27758;55.900;8.516;2022-08-07T12:24:53;19.50;99.90
42099;DHT22;27758;55.900;8.516;2022-08-07T12:27:41;20.00;99.90
42099;DHT22;27758;55.900;8.516;2022-08-07T12:30:08;20.00;99.90
42099;DHT22;27758;55.900;8.516;2022-08-07T12:35:16;19.90;99.90
42099;DHT22;27758;55.900;8.516;2022-08-07T12:37:45;19.80;99.90
42099;DHT22;27758;55.900;8.516;2022-08-07T12:40:12;19.80;99.90
42099;DHT22;27758;55.900;8.516;2022-08-07T12:42:40;19.70;99.90
42099;DHT22;27758;55.900;8.516;2022-08-07T12:45:17;19.60;99.90
42099;DHT22;27758;55.900;8.516;2022-08-07T12:47:45;19.60;99.90
42099;DHT22;27758;55.900;8.516;2022-08-07T12:55:28;19.20;99.90
42099;DHT22;27758;55.900;8.516;2022-08-07T12:57:55;19.20;99.90
42099;DHT22;27758;55.900;8.516;2022-08-07T13:00:25;19.10;99.90
42099;DHT22;27758;55.900;8.516;2022-08-07T13:03:12;19.10;99.90
42099;DHT22;27758;55.900;8.516;2022-08-07T13:05:52;18.90;99.90
42099;DHT22;27758;55.900;8.516;2022-08-07T13:11:13;18.80;99.90
42099;DHT22;27758;55.900;8.516;2022-08-07T13:13:56;18.90;99.90
42099;DHT22;27758;55.900;8.516;2022-08-07T13:18:56;19.10;99.90
42099;DHT22;27758;55.900;8.516;2022-08-07T13:21:25;19.00;99.90
42099;DHT22;27758;55.900;8.516;2022-08-07T13:24:09;19.10;99.90
42099;DHT22;27758;55.900;8.516;2022-08-07T13:26:44;19.20;99.90
42099;DHT22;27758;55.900;8.516;2022-08-07T13:29:15;19.20;99.90
42099;DHT22;27758;55.900;8.516;2022-08-07T13:36:57;19.10;99.90
42099;DHT22;27758;55.900;8.516;2022-08-07T13:39:44;19.10;99.90
42099;DHT22;27758;55.900;8.516;2022-08-07T13:42:11;19.10;99.90
42099;DHT22;27758;55.900;8.516;2022-08-07T13:44:39;19.10;99.90
42099;DHT22;27758;55.900;8.516;2022-08-07T13:47:07;19.30;99.90
42099;DHT22;27758;55.900;8.516;2022-08-07T13:49:34;19.30;99.90
42099;DHT22;27758;55.900;8.516;2022-08-07T13:52:02;19.10;99.90
42099;DHT22;27758;55.900;8.516;2022-08-07T13:54:29;19.10;99.90
42099;DHT22;27758;55.900;8.516;2022-08-07T13:56:56;19.00;99.90
42099;DHT22;27758;55.900;8.516;2022-08-07T13:59:25;18.90;99.90
42099;DHT22;27758;55.900;8.516;2022-08-07T14:01:58;18.80;99.90
42099;DHT22;27758;55.900;8.516;2022-08-07T14:04:33;18.80;99.90
42099;DHT22;27758;55.900;8.516;2022-08-07T14:07:02;18.70;99.90
42099;DHT22;27758;55.900;8.516;2022-08-07T14:09:32;18.70;99.90
42099;DHT22;27758;55.900;8.516;2022-08-07T14:12:00;18.70;99.90
42099;DHT22;27758;55.900;8.516;2022-08-07T14:14:29;18.70;99.90
42099;DHT22;27758;55.900;8.516;2022-08-07T14:16:56;18.80;99.90
42099;DHT22;27758;55.900;8.516;2022-08-07T14:22:18;18.80;99.90
42099;DHT22;27758;55.900;8.516;2022-08-07T14:24:47;18.70;99.90
42099;DHT22;27758;55.900;8.516;2022-08-07T14:27:14;18.60;99.90
42099;DHT22;27758;55.900;8.516;2022-08-07T14:29:41;18.60;99.90
42099;DHT22;27758;55.900;8.516;2022-08-07T14:32:11;18.70;99.90
42099;DHT22;27758;55.900;8.516;2022-08-07T14:34:42;18.80;99.90
42099;DHT22;27758;55.900;8.516;2022-08-07T14:37:09;18.90;99.90
42099;DHT22;27758;55.900;8.516;2022-08-07T14:39:36;19.00;99.90
42099;DHT22;27758;55.900;8.516;2022-08-07T14:42:02;19.00;99.90
42099;DHT22;27758;55.900;8.516;2022-08-07T14:44:29;18.90;99.90
42099;DHT22;27758;55.900;8.516;2022-08-07T14:46:55;19.00;99.90
42099;DHT22;27758;55.900;8.516;2022-08-07T14:49:23;18.90;99.90
42099;DHT22;27758;55.900;8.516;2022-08-07T14:51:53;18.90;99.90
42099;DHT22;27758;55.900;8.516;2022-08-07T14:54:20;19.00;99.90
42099;DHT22;27758;55.900;8.516;2022-08-07T14:56:46;19.00;99.90
42099;DHT22;27758;55.900;8.516;2022-08-07T14:59:14;19.00;99.90
42099;DHT22;27758;55.900;8.516;2022-08-07T15:01:45;19.10;99.90
42099;DHT22;27758;55.900;8.516;2022-08-07T15:04:10;19.10;99.90
42099;DHT22;27758;55.900;8.516;2022-08-07T15:06:37;19.20;99.90
42099;DHT22;27758;55.900;8.516;2022-08-07T15:09:06;19.30;99.90
42099;DHT22;27758;55.900;8.516;2022-08-07T15:11:35;19.20;99.90
42099;DHT22;27758;55.900;8.516;2022-08-07T15:14:02;19.10;99.90
42099;DHT22;27758;55.900;8.516;2022-08-07T15:16:34;18.90;99.90
42099;DHT22;27758;55.900;8.516;2022-08-07T15:19:01;18.90;99.90
42099;DHT22;27758;55.900;8.516;2022-08-07T15:21:33;18.90;99.90
42099;DHT22;27758;55.900;8.516;2022-08-07T15:24:02;19.00;99.90
42099;DHT22;27758;55.900;8.516;2022-08-07T15:26:34;19.10;99.90
42099;DHT22;27758;55.900;8.516;2022-08-07T15:29:00;19.50;99.90
42099;DHT22;27758;55.900;8.516;2022-08-07T15:31:27;19.80;99.90
42099;DHT22;27758;55.900;8.516;2022-08-07T15:33:57;20.10;99.90
42099;DHT22;27758;55.900;8.516;2022-08-07T15:36:25;20.30;99.90
42099;DHT22;27758;55.900;8.516;2022-08-07T15:38:51;20.50;99.90
42099;DHT22;27758;55.900;8.516;2022-08-07T15:41:20;20.40;99.90
42099;DHT22;27758;55.900;8.516;2022-08-07T15:43:56;20.20;99.90
42099;DHT22;27758;55.900;8.516;2022-08-07T15:46:22;20.20;99.90
42099;DHT22;27758;55.900;8.516;2022-08-07T15:48:51;20.20;99.90
42099;DHT22;27758;55.900;8.516;2022-08-07T15:51:17;20.20;99.90
42099;DHT22;27758;55.900;8.516;2022-08-07T15:53:46;20.00;99.90
42099;DHT22;27758;55.900;8.516;2022-08-07T15:56:13;19.70;99.90
42099;DHT22;27758;55.900;8.516;2022-08-07T16:01:16;19.80;99.90
42099;DHT22;27758;55.900;8.516;2022-08-07T16:03:43;19.80;99.90
42099;DHT22;27758;55.900;8.516;2022-08-07T16:06:10;19.70;99.90
42099;DHT22;27758;55.900;8.516;2022-08-07T16:08:39;19.60;99.90
42099;DHT22;27758;55.900;8.516;2022-08-07T16:11:07;19.50;99.90
42099;DHT22;27758;55.900;8.516;2022-08-07T16:21:37;19.30;99.90
42099;DHT22;27758;55.900;8.516;2022-08-07T16:24:17;19.40;99.90
42099;DHT22;27758;55.900;8.516;2022-08-07T16:26:54;19.40;99.90
42099;DHT22;27758;55.900;8.516;2022-08-07T16:31:58;19.40;99.90
42099;DHT22;27758;55.900;8.516;2022-08-07T16:37:17;19.20;99.90
42099;DHT22;27758;55.900;8.516;2022-08-07T16:54:57;19.10;99.90
42099;DHT22;27758;55.900;8.516;2022-08-07T17:00:13;19.20;99.90
42099;DHT22;27758;55.900;8.516;2022-08-07T17:07:50;19.10;99.90
42099;DHT22;27758;55.900;8.516;2022-08-07T17:13:00;19.00;99.90
42099;DHT22;27758;55.900;8.516;2022-08-07T17:18:01;19.20;99.90
42099;DHT22;27758;55.900;8.516;2022-08-07T17:20:35;19.20;99.90
42099;DHT22;27758;55.900;8.516;2022-08-07T17:25:52;19.20;99.90
42099;DHT22;27758;55.900;8.516;2022-08-07T17:28:27;19.30;99.90
42099;DHT22;27758;55.900;8.516;2022-08-07T17:33:27;19.10;99.90
42099;DHT22;27758;55.900;8.516;2022-08-07T17:35:54;19.00;99.90
42099;DHT22;27758;55.900;8.516;2022-08-07T17:43:47;18.70;99.90
42099;DHT22;27758;55.900;8.516;2022-08-07T17:48:42;18.70;99.90
42099;DHT22;27758;55.900;8.516;2022-08-07T17:51:21;18.60;99.90
42099;DHT22;27758;55.900;8.516;2022-08-07T17:53:51;18.50;99.90
42099;DHT22;27758;55.900;8.516;2022-08-07T17:56:23;18.40;99.90
42099;DHT22;27758;55.900;8.516;2022-08-07T18:01:20;18.30;99.90
42099;DHT22;27758;55.900;8.516;2022-08-07T18:06:33;18.30;99.90
42099;DHT22;27758;55.900;8.516;2022-08-07T18:09:00;18.30;99.90
42099;DHT22;27758;55.900;8.516;2022-08-07T18:11:44;18.20;99.90
42099;DHT22;27758;55.900;8.516;2022-08-07T18:14:22;18.30;99.90
42099;DHT22;27758;55.900;8.516;2022-08-07T18:17:09;18.30;99.90
42099;DHT22;27758;55.900;8.516;2022-08-07T18:19:52;18.30;99.90
42099;DHT22;27758;55.900;8.516;2022-08-07T18:24:54;18.10;99.90
42099;DHT22;27758;55.900;8.516;2022-08-07T18:30:04;18.00;99.90
42099;DHT22;27758;55.900;8.516;2022-08-07T18:45:49;17.70;99.90
42099;DHT22;27758;55.900;8.516;2022-08-07T18:48:21;17.70;99.90
42099;DHT22;27758;55.900;8.516;2022-08-07T18:53:30;17.50;99.90
42099;DHT22;27758;55.900;8.516;2022-08-07T18:56:10;17.50;99.90
42099;DHT22;27758;55.900;8.516;2022-08-07T19:03:46;17.30;99.90
42099;DHT22;27758;55.900;8.516;2022-08-07T19:09:04;17.10;99.90
42099;DHT22;27758;55.900;8.516;2022-08-07T19:14:13;16.90;99.90
42099;DHT22;27758;55.900;8.516;2022-08-07T19:16:40;16.80;99.90
42099;DHT22;27758;55.900;8.516;2022-08-07T19:19:16;16.70;99.90
42099;DHT22;27758;55.900;8.516;2022-08-07T19:21:46;16.70;99.90
42099;DHT22;27758;55.900;8.516;2022-08-07T19:24:14;16.60;99.90
42099;DHT22;27758;55.900;8.516;2022-08-07T19:26:43;16.50;99.90